EmailTwitter


Observations de surface / France / LFBO (07630)

Régions: Québec | Canada | États-Unis | Europe | France | UK | Ailleurs
Station
Affichage
Infos & localisation pour LFBO (07630) | Aide pour décoder les METARs

Observations prises le 2018-06-18 à 07H00 UTC à TOULOUSE/BLAGNAC, FR (LFBO)

Etat du ciel: couvert.

Température: 16.0 Celsius

Point de rosée: 12.0 Celsius

Humidité relative: 77%

Vents: Ouest-sud-ouest à 15 km/h ou 8 noeuds.

Pression au niveau moyen de la mer: 102.60 kilopascals.

Visibilité horizontale: 6.21 milles terrestres ou 9.94 kilomètres.

Hauteur du plafond: 701 mètres ( 2300 pieds ).

Observation METAR:

LFBO 180700Z AUTO 25008KT 9999 BKN023 OVC028 16/12 Q1026 NOSIG=